Weather at Melendugno Heliport

Public forecast

Using degrees Celsius for public forecast. Weather courtesy of forecast.io.

Closest aviation weather report (METAR) to Melendugno Heliport

Closest report is Lecce Galatina Air Base, 13.9 nm (25.7 km) W. Retrieved 2021/09/20 01:55 UTC (18 minutes ago):

LIBN 200155Z 21004KT CAVOK 22/21 Q1012 RMK SKC VIS MIN 9999 WIND THR14 20004KT WIND THR32 21004KT BLU

Closest aviation forecast (TAF) to Melendugno Heliport

Forecast is more than 12 hours old.

Closest forecast is Lecce Galatina Air Base, 13.9 nm (25.7 km) W. Retrieved 2021/06/28 12:51 UTC (3 months ago):

TAF TAF LIBN 281100Z 2812/2824 VRB03KT CAVOK